Terminal Aerodrome Forecast
Issued by NWS Blacksburg, VA

Current Version | Previous Version | Graphics & Text | Print | Product List | Glossary On
Versions: 1 2 3 4 5 6 7 8 9 10 11 12 13 14
000
FTUS41 KRNK 211720
TAFBLF
TAF
KBLF 211720Z 2118/2218 24005KT P6SM SCT040
     FM212100 23005KT P6SM BKN050
     FM220100 00000KT P6SM SKC
     FM221300 24005KT P6SM FEW150=

USA.gov is the U.S. government's official web portal to all federal, state and local government web resources and services.